sensor_id;sensor_type;location;lat;lon;timestamp;P1;durP1;ratioP1;P2;durP2;ratioP2
15398;SDS011;7797;51.428;6.756;2022-08-01T00:00:03;5.47;;;4.87;;
15398;SDS011;7797;51.428;6.756;2022-08-01T00:02:34;6.37;;;5.80;;
15398;SDS011;7797;51.428;6.756;2022-08-01T00:05:01;5.93;;;5.43;;
15398;SDS011;7797;51.428;6.756;2022-08-01T00:07:28;7.10;;;5.60;;
15398;SDS011;7797;51.428;6.756;2022-08-01T00:09:55;6.57;;;5.73;;
15398;SDS011;7797;51.428;6.756;2022-08-01T00:12:22;6.67;;;5.93;;
15398;SDS011;7797;51.428;6.756;2022-08-01T00:14:48;6.33;;;5.83;;
15398;SDS011;7797;51.428;6.756;2022-08-01T00:17:16;6.90;;;6.20;;
15398;SDS011;7797;51.428;6.756;2022-08-01T00:19:42;6.50;;;5.97;;
15398;SDS011;7797;51.428;6.756;2022-08-01T00:22:09;6.93;;;5.83;;
15398;SDS011;7797;51.428;6.756;2022-08-01T00:24:37;6.43;;;5.93;;
15398;SDS011;7797;51.428;6.756;2022-08-01T00:27:03;9.90;;;6.20;;
15398;SDS011;7797;51.428;6.756;2022-08-01T00:29:30;7.77;;;6.73;;
15398;SDS011;7797;51.428;6.756;2022-08-01T00:32:17;7.60;;;5.87;;
15398;SDS011;7797;51.428;6.756;2022-08-01T00:34:43;8.07;;;6.80;;
15398;SDS011;7797;51.428;6.756;2022-08-01T00:37:10;7.53;;;6.87;;
15398;SDS011;7797;51.428;6.756;2022-08-01T00:39:41;8.33;;;6.77;;
15398;SDS011;7797;51.428;6.756;2022-08-01T00:42:09;7.50;;;6.80;;
15398;SDS011;7797;51.428;6.756;2022-08-01T00:44:37;7.63;;;6.90;;
15398;SDS011;7797;51.428;6.756;2022-08-01T00:47:04;6.90;;;6.30;;
15398;SDS011;7797;51.428;6.756;2022-08-01T00:49:32;7.70;;;5.83;;
15398;SDS011;7797;51.428;6.756;2022-08-01T00:51:59;9.23;;;6.67;;
15398;SDS011;7797;51.428;6.756;2022-08-01T00:54:27;7.27;;;6.57;;
15398;SDS011;7797;51.428;6.756;2022-08-01T00:56:54;7.57;;;6.87;;
15398;SDS011;7797;51.428;6.756;2022-08-01T00:59:21;7.40;;;6.60;;
15398;SDS011;7797;51.428;6.756;2022-08-01T01:01:51;7.67;;;6.83;;
15398;SDS011;7797;51.428;6.756;2022-08-01T01:04:18;9.23;;;7.17;;
15398;SDS011;7797;51.428;6.756;2022-08-01T01:09:23;7.87;;;6.57;;
15398;SDS011;7797;51.428;6.756;2022-08-01T01:14:27;7.60;;;6.80;;
15398;SDS011;7797;51.428;6.756;2022-08-01T01:17:00;8.83;;;6.00;;
15398;SDS011;7797;51.428;6.756;2022-08-01T01:19:28;8.90;;;6.97;;
15398;SDS011;7797;51.428;6.756;2022-08-01T01:22:00;7.17;;;6.47;;
15398;SDS011;7797;51.428;6.756;2022-08-01T01:24:39;9.80;;;6.80;;
15398;SDS011;7797;51.428;6.756;2022-08-01T01:27:24;9.53;;;7.17;;
15398;SDS011;7797;51.428;6.756;2022-08-01T01:30:00;7.90;;;7.20;;
15398;SDS011;7797;51.428;6.756;2022-08-01T01:32:31;10.37;;;7.60;;
15398;SDS011;7797;51.428;6.756;2022-08-01T01:35:05;9.33;;;6.80;;
15398;SDS011;7797;51.428;6.756;2022-08-01T01:37:38;8.17;;;7.33;;
15398;SDS011;7797;51.428;6.756;2022-08-01T01:40:06;10.10;;;7.30;;
15398;SDS011;7797;51.428;6.756;2022-08-01T01:42:34;11.40;;;7.73;;
15398;SDS011;7797;51.428;6.756;2022-08-01T01:45:03;10.93;;;7.80;;
15398;SDS011;7797;51.428;6.756;2022-08-01T01:47:31;8.00;;;6.97;;
15398;SDS011;7797;51.428;6.756;2022-08-01T01:49:59;9.73;;;7.67;;
15398;SDS011;7797;51.428;6.756;2022-08-01T01:52:26;10.03;;;7.97;;
15398;SDS011;7797;51.428;6.756;2022-08-01T01:54:54;11.93;;;8.13;;
15398;SDS011;7797;51.428;6.756;2022-08-01T01:57:22;10.13;;;7.63;;
15398;SDS011;7797;51.428;6.756;2022-08-01T01:59:51;11.40;;;7.90;;
15398;SDS011;7797;51.428;6.756;2022-08-01T02:02:19;9.70;;;8.13;;
15398;SDS011;7797;51.428;6.756;2022-08-01T02:04:48;8.87;;;7.93;;
15398;SDS011;7797;51.428;6.756;2022-08-01T02:07:21;10.30;;;8.37;;
15398;SDS011;7797;51.428;6.756;2022-08-01T02:09:49;9.20;;;8.30;;
15398;SDS011;7797;51.428;6.756;2022-08-01T02:12:16;9.87;;;8.03;;
15398;SDS011;7797;51.428;6.756;2022-08-01T02:14:44;11.33;;;8.10;;
15398;SDS011;7797;51.428;6.756;2022-08-01T02:17:12;11.93;;;8.43;;
15398;SDS011;7797;51.428;6.756;2022-08-01T02:19:46;9.37;;;8.33;;
15398;SDS011;7797;51.428;6.756;2022-08-01T02:22:21;10.83;;;8.87;;
15398;SDS011;7797;51.428;6.756;2022-08-01T02:24:56;13.03;;;9.13;;
15398;SDS011;7797;51.428;6.756;2022-08-01T02:27:34;13.37;;;9.47;;
15398;SDS011;7797;51.428;6.756;2022-08-01T02:30:05;13.77;;;9.50;;
15398;SDS011;7797;51.428;6.756;2022-08-01T02:32:37;11.23;;;9.17;;
15398;SDS011;7797;51.428;6.756;2022-08-01T02:35:11;11.50;;;9.27;;
15398;SDS011;7797;51.428;6.756;2022-08-01T02:37:44;12.07;;;9.67;;
15398;SDS011;7797;51.428;6.756;2022-08-01T02:40:12;13.33;;;9.90;;
15398;SDS011;7797;51.428;6.756;2022-08-01T02:42:41;12.43;;;9.50;;
15398;SDS011;7797;51.428;6.756;2022-08-01T02:45:10;13.17;;;9.20;;
15398;SDS011;7797;51.428;6.756;2022-08-01T02:47:40;12.47;;;9.30;;
15398;SDS011;7797;51.428;6.756;2022-08-01T02:50:10;14.80;;;10.33;;
15398;SDS011;7797;51.428;6.756;2022-08-01T02:52:39;12.93;;;9.43;;
15398;SDS011;7797;51.428;6.756;2022-08-01T02:55:06;13.73;;;10.10;;
15398;SDS011;7797;51.428;6.756;2022-08-01T02:57:35;12.23;;;10.17;;
15398;SDS011;7797;51.428;6.756;2022-08-01T03:00:18;14.97;;;10.40;;
15398;SDS011;7797;51.428;6.756;2022-08-01T03:02:48;13.03;;;10.83;;
15398;SDS011;7797;51.428;6.756;2022-08-01T03:05:17;12.90;;;10.80;;
15398;SDS011;7797;51.428;6.756;2022-08-01T03:07:45;16.57;;;11.40;;
15398;SDS011;7797;51.428;6.756;2022-08-01T03:10:14;14.10;;;10.73;;
15398;SDS011;7797;51.428;6.756;2022-08-01T03:12:42;17.00;;;10.87;;
15398;SDS011;7797;51.428;6.756;2022-08-01T03:15:13;15.73;;;11.43;;
15398;SDS011;7797;51.428;6.756;2022-08-01T03:17:40;15.63;;;11.60;;
15398;SDS011;7797;51.428;6.756;2022-08-01T03:20:10;15.90;;;11.57;;
15398;SDS011;7797;51.428;6.756;2022-08-01T03:22:38;13.90;;;11.10;;
15398;SDS011;7797;51.428;6.756;2022-08-01T03:25:05;17.77;;;11.83;;
15398;SDS011;7797;51.428;6.756;2022-08-01T03:27:33;14.50;;;11.63;;
15398;SDS011;7797;51.428;6.756;2022-08-01T03:30:02;16.23;;;11.87;;
15398;SDS011;7797;51.428;6.756;2022-08-01T03:32:31;14.47;;;11.63;;
15398;SDS011;7797;51.428;6.756;2022-08-01T03:34:57;15.47;;;11.47;;
15398;SDS011;7797;51.428;6.756;2022-08-01T03:37:26;15.50;;;10.77;;
15398;SDS011;7797;51.428;6.756;2022-08-01T03:40:00;17.60;;;11.73;;
15398;SDS011;7797;51.428;6.756;2022-08-01T03:42:31;15.53;;;11.97;;
15398;SDS011;7797;51.428;6.756;2022-08-01T03:45:04;15.83;;;11.43;;
15398;SDS011;7797;51.428;6.756;2022-08-01T03:47:38;15.43;;;12.20;;
15398;SDS011;7797;51.428;6.756;2022-08-01T03:50:10;13.47;;;12.00;;
15398;SDS011;7797;51.428;6.756;2022-08-01T03:52:38;17.27;;;12.90;;
15398;SDS011;7797;51.428;6.756;2022-08-01T03:55:06;14.37;;;11.40;;
15398;SDS011;7797;51.428;6.756;2022-08-01T03:57:33;15.53;;;12.10;;
15398;SDS011;7797;51.428;6.756;2022-08-01T04:00:03;16.27;;;11.77;;
15398;SDS011;7797;51.428;6.756;2022-08-01T04:02:33;13.77;;;11.17;;
15398;SDS011;7797;51.428;6.756;2022-08-01T04:05:01;14.27;;;11.27;;
15398;SDS011;7797;51.428;6.756;2022-08-01T04:07:29;16.70;;;11.17;;
15398;SDS011;7797;51.428;6.756;2022-08-01T04:09:57;12.40;;;10.43;;
15398;SDS011;7797;51.428;6.756;2022-08-01T04:12:24;12.07;;;10.70;;
15398;SDS011;7797;51.428;6.756;2022-08-01T04:14:50;16.97;;;11.67;;
15398;SDS011;7797;51.428;6.756;2022-08-01T04:17:17;14.63;;;11.67;;
15398;SDS011;7797;51.428;6.756;2022-08-01T04:19:44;15.97;;;11.43;;
15398;SDS011;7797;51.428;6.756;2022-08-01T04:22:11;15.60;;;11.83;;
15398;SDS011;7797;51.428;6.756;2022-08-01T04:24:41;13.90;;;11.53;;
15398;SDS011;7797;51.428;6.756;2022-08-01T04:27:10;12.70;;;11.30;;
15398;SDS011;7797;51.428;6.756;2022-08-01T04:29:40;12.53;;;10.90;;
15398;SDS011;7797;51.428;6.756;2022-08-01T04:32:08;13.07;;;11.23;;
15398;SDS011;7797;51.428;6.756;2022-08-01T04:34:37;11.97;;;10.67;;
15398;SDS011;7797;51.428;6.756;2022-08-01T04:37:07;14.73;;;11.40;;
15398;SDS011;7797;51.428;6.756;2022-08-01T04:39:38;12.53;;;10.97;;
15398;SDS011;7797;51.428;6.756;2022-08-01T04:42:16;11.73;;;10.23;;
15398;SDS011;7797;51.428;6.756;2022-08-01T04:44:51;13.87;;;11.03;;
15398;SDS011;7797;51.428;6.756;2022-08-01T04:47:17;17.27;;;11.33;;
15398;SDS011;7797;51.428;6.756;2022-08-01T04:49:45;14.00;;;10.90;;
15398;SDS011;7797;51.428;6.756;2022-08-01T04:52:14;11.23;;;10.10;;
15398;SDS011;7797;51.428;6.756;2022-08-01T04:54:49;12.97;;;10.20;;
15398;SDS011;7797;51.428;6.756;2022-08-01T04:57:16;11.63;;;10.43;;
15398;SDS011;7797;51.428;6.756;2022-08-01T04:59:43;12.33;;;10.53;;
15398;SDS011;7797;51.428;6.756;2022-08-01T05:02:11;12.23;;;10.20;;
15398;SDS011;7797;51.428;6.756;2022-08-01T05:04:47;12.23;;;10.67;;
15398;SDS011;7797;51.428;6.756;2022-08-01T05:07:14;13.73;;;10.50;;
15398;SDS011;7797;51.428;6.756;2022-08-01T05:09:42;12.87;;;10.17;;
15398;SDS011;7797;51.428;6.756;2022-08-01T05:12:08;11.60;;;10.10;;
15398;SDS011;7797;51.428;6.756;2022-08-01T05:14:37;16.47;;;10.83;;
15398;SDS011;7797;51.428;6.756;2022-08-01T05:17:04;12.53;;;10.00;;
15398;SDS011;7797;51.428;6.756;2022-08-01T05:19:36;14.80;;;10.83;;
15398;SDS011;7797;51.428;6.756;2022-08-01T05:22:05;11.60;;;10.27;;
15398;SDS011;7797;51.428;6.756;2022-08-01T05:24:34;11.47;;;10.00;;
15398;SDS011;7797;51.428;6.756;2022-08-01T05:27:02;12.20;;;10.00;;
15398;SDS011;7797;51.428;6.756;2022-08-01T05:29:29;11.77;;;10.23;;
15398;SDS011;7797;51.428;6.756;2022-08-01T05:31:56;14.27;;;10.57;;
15398;SDS011;7797;51.428;6.756;2022-08-01T05:34:25;10.60;;;9.53;;
15398;SDS011;7797;51.428;6.756;2022-08-01T05:36:52;15.40;;;10.73;;
15398;SDS011;7797;51.428;6.756;2022-08-01T05:39:23;14.87;;;11.13;;
15398;SDS011;7797;51.428;6.756;2022-08-01T05:41:49;13.53;;;10.90;;
15398;SDS011;7797;51.428;6.756;2022-08-01T05:44:16;14.47;;;10.70;;
15398;SDS011;7797;51.428;6.756;2022-08-01T05:46:43;11.93;;;10.43;;
15398;SDS011;7797;51.428;6.756;2022-08-01T05:49:10;13.23;;;10.27;;
15398;SDS011;7797;51.428;6.756;2022-08-01T05:51:36;14.93;;;11.20;;
15398;SDS011;7797;51.428;6.756;2022-08-01T05:54:03;14.27;;;10.10;;
15398;SDS011;7797;51.428;6.756;2022-08-01T05:56:30;13.80;;;11.03;;
15398;SDS011;7797;51.428;6.756;2022-08-01T05:58:57;13.93;;;10.60;;
15398;SDS011;7797;51.428;6.756;2022-08-01T06:01:24;14.80;;;10.87;;
15398;SDS011;7797;51.428;6.756;2022-08-01T06:03:51;12.67;;;9.90;;
15398;SDS011;7797;51.428;6.756;2022-08-01T06:06:20;12.30;;;9.83;;
15398;SDS011;7797;51.428;6.756;2022-08-01T06:08:50;13.47;;;9.80;;
15398;SDS011;7797;51.428;6.756;2022-08-01T06:11:18;8.53;;;7.73;;
15398;SDS011;7797;51.428;6.756;2022-08-01T06:13:44;13.33;;;7.90;;
15398;SDS011;7797;51.428;6.756;2022-08-01T06:16:14;11.30;;;8.40;;
15398;SDS011;7797;51.428;6.756;2022-08-01T06:18:41;9.23;;;8.23;;
15398;SDS011;7797;51.428;6.756;2022-08-01T06:21:08;10.53;;;8.70;;
15398;SDS011;7797;51.428;6.756;2022-08-01T06:23:35;9.47;;;7.70;;
15398;SDS011;7797;51.428;6.756;2022-08-01T06:26:01;10.00;;;8.53;;
15398;SDS011;7797;51.428;6.756;2022-08-01T06:28:28;10.73;;;8.37;;
15398;SDS011;7797;51.428;6.756;2022-08-01T06:30:55;10.83;;;7.40;;
15398;SDS011;7797;51.428;6.756;2022-08-01T06:33:22;11.40;;;7.60;;
15398;SDS011;7797;51.428;6.756;2022-08-01T06:35:49;10.93;;;8.07;;
15398;SDS011;7797;51.428;6.756;2022-08-01T06:38:15;13.87;;;7.60;;
15398;SDS011;7797;51.428;6.756;2022-08-01T06:40:42;10.40;;;7.03;;
15398;SDS011;7797;51.428;6.756;2022-08-01T06:43:09;7.27;;;6.57;;
15398;SDS011;7797;51.428;6.756;2022-08-01T06:45:38;7.30;;;6.50;;
15398;SDS011;7797;51.428;6.756;2022-08-01T06:48:06;9.07;;;6.30;;
15398;SDS011;7797;51.428;6.756;2022-08-01T06:50:33;7.13;;;6.00;;
15398;SDS011;7797;51.428;6.756;2022-08-01T06:53:01;6.67;;;5.80;;
15398;SDS011;7797;51.428;6.756;2022-08-01T06:55:28;6.43;;;5.83;;
15398;SDS011;7797;51.428;6.756;2022-08-01T06:57:55;6.63;;;5.20;;
15398;SDS011;7797;51.428;6.756;2022-08-01T07:00:23;7.37;;;4.97;;
15398;SDS011;7797;51.428;6.756;2022-08-01T07:02:51;5.77;;;5.20;;
15398;SDS011;7797;51.428;6.756;2022-08-01T07:05:19;6.27;;;5.57;;
15398;SDS011;7797;51.428;6.756;2022-08-01T07:07:46;6.70;;;5.27;;
15398;SDS011;7797;51.428;6.756;2022-08-01T07:10:12;6.40;;;5.40;;
15398;SDS011;7797;51.428;6.756;2022-08-01T07:12:39;6.13;;;5.40;;
15398;SDS011;7797;51.428;6.756;2022-08-01T07:15:07;6.27;;;5.67;;
15398;SDS011;7797;51.428;6.756;2022-08-01T07:17:39;6.27;;;5.47;;
15398;SDS011;7797;51.428;6.756;2022-08-01T07:20:07;8.20;;;6.30;;
15398;SDS011;7797;51.428;6.756;2022-08-01T07:22:36;6.13;;;5.47;;
15398;SDS011;7797;51.428;6.756;2022-08-01T07:25:04;7.30;;;5.70;;
15398;SDS011;7797;51.428;6.756;2022-08-01T07:27:31;6.13;;;5.50;;
15398;SDS011;7797;51.428;6.756;2022-08-01T07:29:58;8.10;;;5.80;;
15398;SDS011;7797;51.428;6.756;2022-08-01T07:32:25;8.37;;;5.67;;
15398;SDS011;7797;51.428;6.756;2022-08-01T07:34:52;5.27;;;4.77;;
15398;SDS011;7797;51.428;6.756;2022-08-01T07:37:19;5.60;;;5.10;;
15398;SDS011;7797;51.428;6.756;2022-08-01T07:40:06;5.23;;;4.10;;
15398;SDS011;7797;51.428;6.756;2022-08-01T07:42:33;4.43;;;3.80;;
15398;SDS011;7797;51.428;6.756;2022-08-01T07:44:59;3.97;;;3.67;;
15398;SDS011;7797;51.428;6.756;2022-08-01T07:47:27;3.53;;;3.30;;
15398;SDS011;7797;51.428;6.756;2022-08-01T07:50:00;4.77;;;3.63;;
15398;SDS011;7797;51.428;6.756;2022-08-01T07:52:27;4.63;;;4.23;;
15398;SDS011;7797;51.428;6.756;2022-08-01T07:54:54;4.63;;;4.07;;
15398;SDS011;7797;51.428;6.756;2022-08-01T07:57:22;6.63;;;4.10;;
15398;SDS011;7797;51.428;6.756;2022-08-01T07:59:50;4.67;;;4.23;;
15398;SDS011;7797;51.428;6.756;2022-08-01T08:02:17;4.70;;;4.20;;
15398;SDS011;7797;51.428;6.756;2022-08-01T08:04:44;4.60;;;4.13;;
15398;SDS011;7797;51.428;6.756;2022-08-01T08:07:14;7.70;;;4.90;;
15398;SDS011;7797;51.428;6.756;2022-08-01T08:09:41;6.33;;;4.60;;
15398;SDS011;7797;51.428;6.756;2022-08-01T08:12:16;5.00;;;4.27;;
15398;SDS011;7797;51.428;6.756;2022-08-01T08:14:43;4.73;;;4.20;;
15398;SDS011;7797;51.428;6.756;2022-08-01T08:17:10;3.70;;;3.40;;
15398;SDS011;7797;51.428;6.756;2022-08-01T08:19:37;4.27;;;3.40;;
15398;SDS011;7797;51.428;6.756;2022-08-01T08:22:06;3.00;;;2.80;;
15398;SDS011;7797;51.428;6.756;2022-08-01T08:24:36;2.90;;;2.70;;
15398;SDS011;7797;51.428;6.756;2022-08-01T08:27:12;2.47;;;2.30;;
15398;SDS011;7797;51.428;6.756;2022-08-01T08:29:39;3.60;;;2.53;;
15398;SDS011;7797;51.428;6.756;2022-08-01T08:32:05;2.43;;;2.30;;
15398;SDS011;7797;51.428;6.756;2022-08-01T08:34:33;2.40;;;2.20;;
15398;SDS011;7797;51.428;6.756;2022-08-01T08:37:00;2.47;;;2.27;;
15398;SDS011;7797;51.428;6.756;2022-08-01T08:39:28;3.30;;;2.50;;
15398;SDS011;7797;51.428;6.756;2022-08-01T08:42:07;2.63;;;2.43;;
15398;SDS011;7797;51.428;6.756;2022-08-01T08:44:34;4.17;;;2.20;;
15398;SDS011;7797;51.428;6.756;2022-08-01T08:47:10;2.20;;;2.10;;
15398;SDS011;7797;51.428;6.756;2022-08-01T08:49:46;2.63;;;2.43;;
15398;SDS011;7797;51.428;6.756;2022-08-01T08:52:14;2.70;;;2.00;;
15398;SDS011;7797;51.428;6.756;2022-08-01T08:54:41;3.53;;;1.83;;
15398;SDS011;7797;51.428;6.756;2022-08-01T08:57:09;2.00;;;1.90;;
15398;SDS011;7797;51.428;6.756;2022-08-01T08:59:37;2.50;;;2.10;;
15398;SDS011;7797;51.428;6.756;2022-08-01T09:02:04;2.10;;;2.00;;
15398;SDS011;7797;51.428;6.756;2022-08-01T09:04:33;2.13;;;2.00;;
15398;SDS011;7797;51.428;6.756;2022-08-01T09:07:00;2.73;;;2.10;;
15398;SDS011;7797;51.428;6.756;2022-08-01T09:09:27;3.57;;;2.30;;
15398;SDS011;7797;51.428;6.756;2022-08-01T09:11:54;2.83;;;2.63;;
15398;SDS011;7797;51.428;6.756;2022-08-01T09:14:23;2.70;;;2.57;;
15398;SDS011;7797;51.428;6.756;2022-08-01T09:19:35;2.30;;;2.20;;
15398;SDS011;7797;51.428;6.756;2022-08-01T09:22:07;3.07;;;2.60;;
15398;SDS011;7797;51.428;6.756;2022-08-01T09:24:36;2.70;;;2.50;;
15398;SDS011;7797;51.428;6.756;2022-08-01T09:27:19;2.37;;;2.17;;
15398;SDS011;7797;51.428;6.756;2022-08-01T09:29:48;3.23;;;2.60;;
15398;SDS011;7797;51.428;6.756;2022-08-01T09:32:30;2.97;;;2.70;;
15398;SDS011;7797;51.428;6.756;2022-08-01T09:38:12;2.77;;;2.57;;
15398;SDS011;7797;51.428;6.756;2022-08-01T09:43:21;2.30;;;2.20;;
15398;SDS011;7797;51.428;6.756;2022-08-01T09:45:50;4.40;;;2.33;;
15398;SDS011;7797;51.428;6.756;2022-08-01T09:48:19;2.70;;;2.50;;
15398;SDS011;7797;51.428;6.756;2022-08-01T09:50:48;2.30;;;2.20;;
15398;SDS011;7797;51.428;6.756;2022-08-01T09:53:17;4.40;;;2.17;;
15398;SDS011;7797;51.428;6.756;2022-08-01T09:56:07;2.42;;;2.33;;
15398;SDS011;7797;51.428;6.756;2022-08-01T10:01:45;2.40;;;2.30;;
15398;SDS011;7797;51.428;6.756;2022-08-01T10:06:43;2.60;;;2.50;;
15398;SDS011;7797;51.428;6.756;2022-08-01T10:09:12;2.40;;;2.30;;
15398;SDS011;7797;51.428;6.756;2022-08-01T10:11:41;3.22;;;2.70;;
15398;SDS011;7797;51.428;6.756;2022-08-01T10:14:10;2.88;;;2.60;;
15398;SDS011;7797;51.428;6.756;2022-08-01T10:16:43;3.13;;;2.40;;
15398;SDS011;7797;51.428;6.756;2022-08-01T10:19:10;2.83;;;2.63;;
15398;SDS011;7797;51.428;6.756;2022-08-01T10:21:41;2.20;;;2.10;;
15398;SDS011;7797;51.428;6.756;2022-08-01T10:24:24;2.40;;;2.20;;
15398;SDS011;7797;51.428;6.756;2022-08-01T10:27:01;2.10;;;2.00;;
15398;SDS011;7797;51.428;6.756;2022-08-01T10:29:47;2.10;;;2.00;;
15398;SDS011;7797;51.428;6.756;2022-08-01T10:32:34;2.00;;;1.90;;
15398;SDS011;7797;51.428;6.756;2022-08-01T10:35:05;2.20;;;2.07;;
15398;SDS011;7797;51.428;6.756;2022-08-01T10:37:40;2.40;;;2.22;;
15398;SDS011;7797;51.428;6.756;2022-08-01T10:40:18;2.63;;;2.40;;
15398;SDS011;7797;51.428;6.756;2022-08-01T10:43:01;2.30;;;2.20;;
15398;SDS011;7797;51.428;6.756;2022-08-01T10:45:28;2.60;;;2.40;;
15398;SDS011;7797;51.428;6.756;2022-08-01T10:48:00;2.15;;;2.03;;
15398;SDS011;7797;51.428;6.756;2022-08-01T10:50:36;2.25;;;2.03;;
15398;SDS011;7797;51.428;6.756;2022-08-01T10:53:09;2.08;;;1.83;;
15398;SDS011;7797;51.428;6.756;2022-08-01T11:01:23;2.25;;;2.00;;
15398;SDS011;7797;51.428;6.756;2022-08-01T11:17:38;2.07;;;1.97;;
15398;SDS011;7797;51.428;6.756;2022-08-01T11:20:13;5.10;;;2.13;;
15398;SDS011;7797;51.428;6.756;2022-08-01T11:28:25;4.70;;;2.00;;
15398;SDS011;7797;51.428;6.756;2022-08-01T11:38:44;1.90;;;1.80;;
15398;SDS011;7797;51.428;6.756;2022-08-01T11:41:15;1.42;;;1.33;;
15398;SDS011;7797;51.428;6.756;2022-08-01T11:43:56;1.70;;;1.60;;
15398;SDS011;7797;51.428;6.756;2022-08-01T11:54:47;2.15;;;1.95;;
15398;SDS011;7797;51.428;6.756;2022-08-01T11:57:22;1.85;;;1.55;;
15398;SDS011;7797;51.428;6.756;2022-08-01T12:00:19;3.00;;;1.80;;
15398;SDS011;7797;51.428;6.756;2022-08-01T12:02:46;2.10;;;2.00;;
15398;SDS011;7797;51.428;6.756;2022-08-01T12:05:14;2.35;;;1.95;;
15398;SDS011;7797;51.428;6.756;2022-08-01T12:07:45;2.28;;;2.08;;
15398;SDS011;7797;51.428;6.756;2022-08-01T12:10:17;2.00;;;1.90;;
15398;SDS011;7797;51.428;6.756;2022-08-01T12:12:55;1.95;;;1.83;;
15398;SDS011;7797;51.428;6.756;2022-08-01T12:15:24;1.85;;;1.75;;
15398;SDS011;7797;51.428;6.756;2022-08-01T12:17:55;2.17;;;2.08;;
15398;SDS011;7797;51.428;6.756;2022-08-01T12:20:35;2.10;;;1.90;;
15398;SDS011;7797;51.428;6.756;2022-08-01T12:23:06;1.75;;;1.73;;
15398;SDS011;7797;51.428;6.756;2022-08-01T12:25:35;2.08;;;1.83;;
15398;SDS011;7797;51.428;6.756;2022-08-01T12:28:06;1.80;;;1.70;;
15398;SDS011;7797;51.428;6.756;2022-08-01T12:30:35;2.00;;;1.90;;
15398;SDS011;7797;51.428;6.756;2022-08-01T12:33:03;2.38;;;2.17;;
15398;SDS011;7797;51.428;6.756;2022-08-01T12:35:32;1.92;;;1.83;;
15398;SDS011;7797;51.428;6.756;2022-08-01T12:38:02;1.40;;;1.40;;
15398;SDS011;7797;51.428;6.756;2022-08-01T12:40:32;1.70;;;1.60;;
15398;SDS011;7797;51.428;6.756;2022-08-01T12:43:01;1.80;;;1.70;;
15398;SDS011;7797;51.428;6.756;2022-08-01T12:45:37;1.77;;;1.67;;
15398;SDS011;7797;51.428;6.756;2022-08-01T12:48:22;2.00;;;1.90;;
15398;SDS011;7797;51.428;6.756;2022-08-01T12:50:50;1.83;;;1.73;;
15398;SDS011;7797;51.428;6.756;2022-08-01T12:53:19;1.90;;;1.80;;
15398;SDS011;7797;51.428;6.756;2022-08-01T12:55:48;1.92;;;1.70;;
15398;SDS011;7797;51.428;6.756;2022-08-01T12:58:29;1.90;;;1.80;;
15398;SDS011;7797;51.428;6.756;2022-08-01T13:01:07;2.17;;;1.60;;
15398;SDS011;7797;51.428;6.756;2022-08-01T13:03:35;1.58;;;1.48;;
15398;SDS011;7797;51.428;6.756;2022-08-01T13:06:10;1.83;;;1.70;;
15398;SDS011;7797;51.428;6.756;2022-08-01T13:08:41;3.03;;;1.80;;
15398;SDS011;7797;51.428;6.756;2022-08-01T13:11:09;3.85;;;2.38;;
15398;SDS011;7797;51.428;6.756;2022-08-01T13:13:41;2.90;;;1.98;;
15398;SDS011;7797;51.428;6.756;2022-08-01T13:16:09;1.85;;;1.70;;
15398;SDS011;7797;51.428;6.756;2022-08-01T13:18:47;1.50;;;1.45;;
15398;SDS011;7797;51.428;6.756;2022-08-01T13:21:16;1.70;;;1.60;;
15398;SDS011;7797;51.428;6.756;2022-08-01T13:29:31;2.10;;;2.00;;
15398;SDS011;7797;51.428;6.756;2022-08-01T13:32:18;1.80;;;1.70;;
15398;SDS011;7797;51.428;6.756;2022-08-01T13:37:48;1.83;;;1.73;;
15398;SDS011;7797;51.428;6.756;2022-08-01T13:40:23;1.88;;;1.70;;
15398;SDS011;7797;51.428;6.756;2022-08-01T13:42:52;1.63;;;1.63;;
15398;SDS011;7797;51.428;6.756;2022-08-01T13:45:20;1.63;;;1.52;;
15398;SDS011;7797;51.428;6.756;2022-08-01T13:47:47;1.77;;;1.67;;
15398;SDS011;7797;51.428;6.756;2022-08-01T13:50:34;1.73;;;1.63;;
15398;SDS011;7797;51.428;6.756;2022-08-01T13:53:02;2.00;;;1.90;;
15398;SDS011;7797;51.428;6.756;2022-08-01T13:55:28;2.10;;;2.00;;
15398;SDS011;7797;51.428;6.756;2022-08-01T13:57:59;2.03;;;1.92;;
15398;SDS011;7797;51.428;6.756;2022-08-01T14:00:26;2.17;;;1.98;;
15398;SDS011;7797;51.428;6.756;2022-08-01T14:02:53;2.03;;;1.92;;
15398;SDS011;7797;51.428;6.756;2022-08-01T14:05:20;2.80;;;1.90;;
15398;SDS011;7797;51.428;6.756;2022-08-01T14:07:47;3.08;;;2.00;;
15398;SDS011;7797;51.428;6.756;2022-08-01T14:10:14;2.72;;;1.90;;
15398;SDS011;7797;51.428;6.756;2022-08-01T14:12:45;2.13;;;2.03;;
15398;SDS011;7797;51.428;6.756;2022-08-01T14:15:14;2.15;;;1.70;;
15398;SDS011;7797;51.428;6.756;2022-08-01T14:18:01;2.50;;;1.50;;
15398;SDS011;7797;51.428;6.756;2022-08-01T14:20:27;2.42;;;2.22;;
15398;SDS011;7797;51.428;6.756;2022-08-01T14:22:54;1.50;;;1.50;;
15398;SDS011;7797;51.428;6.756;2022-08-01T14:25:21;2.17;;;1.95;;
15398;SDS011;7797;51.428;6.756;2022-08-01T14:28:08;3.17;;;2.13;;
15398;SDS011;7797;51.428;6.756;2022-08-01T14:30:35;3.10;;;1.88;;
15398;SDS011;7797;51.428;6.756;2022-08-01T14:33:02;2.10;;;2.00;;
15398;SDS011;7797;51.428;6.756;2022-08-01T14:35:29;2.65;;;2.00;;
15398;SDS011;7797;51.428;6.756;2022-08-01T14:38:16;1.95;;;1.83;;
15398;SDS011;7797;51.428;6.756;2022-08-01T14:40:56;2.72;;;2.00;;
15398;SDS011;7797;51.428;6.756;2022-08-01T14:43:23;4.00;;;2.20;;
15398;SDS011;7797;51.428;6.756;2022-08-01T14:45:58;1.90;;;1.80;;
15398;SDS011;7797;51.428;6.756;2022-08-01T14:48:25;2.10;;;1.85;;
15398;SDS011;7797;51.428;6.756;2022-08-01T14:50:52;1.98;;;1.88;;
15398;SDS011;7797;51.428;6.756;2022-08-01T14:53:19;2.13;;;1.90;;
15398;SDS011;7797;51.428;6.756;2022-08-01T14:55:46;1.90;;;1.80;;
15398;SDS011;7797;51.428;6.756;2022-08-01T14:58:13;1.80;;;1.67;;
15398;SDS011;7797;51.428;6.756;2022-08-01T15:00:42;1.80;;;1.70;;
15398;SDS011;7797;51.428;6.756;2022-08-01T15:03:09;2.20;;;2.00;;
15398;SDS011;7797;51.428;6.756;2022-08-01T15:05:35;3.17;;;1.90;;
15398;SDS011;7797;51.428;6.756;2022-08-01T15:08:03;3.40;;;1.95;;
15398;SDS011;7797;51.428;6.756;2022-08-01T15:10:30;2.20;;;2.00;;
15398;SDS011;7797;51.428;6.756;2022-08-01T15:12:58;4.05;;;2.30;;
15398;SDS011;7797;51.428;6.756;2022-08-01T15:15:26;2.40;;;2.20;;
15398;SDS011;7797;51.428;6.756;2022-08-01T15:17:53;2.67;;;2.33;;
15398;SDS011;7797;51.428;6.756;2022-08-01T15:20:23;2.75;;;2.20;;
15398;SDS011;7797;51.428;6.756;2022-08-01T15:22:51;1.90;;;1.80;;
15398;SDS011;7797;51.428;6.756;2022-08-01T15:25:19;1.90;;;1.50;;
15398;SDS011;7797;51.428;6.756;2022-08-01T15:27:46;3.25;;;1.40;;
15398;SDS011;7797;51.428;6.756;2022-08-01T15:30:12;1.70;;;1.60;;
15398;SDS011;7797;51.428;6.756;2022-08-01T15:32:39;2.63;;;1.52;;
15398;SDS011;7797;51.428;6.756;2022-08-01T15:35:06;2.15;;;1.55;;
15398;SDS011;7797;51.428;6.756;2022-08-01T15:37:33;1.50;;;1.50;;
15398;SDS011;7797;51.428;6.756;2022-08-01T15:40:06;1.77;;;1.67;;
15398;SDS011;7797;51.428;6.756;2022-08-01T15:42:50;1.95;;;1.70;;
15398;SDS011;7797;51.428;6.756;2022-08-01T15:45:18;1.58;;;1.48;;
15398;SDS011;7797;51.428;6.756;2022-08-01T15:48:07;1.30;;;1.20;;
15398;SDS011;7797;51.428;6.756;2022-08-01T15:50:34;1.55;;;1.42;;
15398;SDS011;7797;51.428;6.756;2022-08-01T15:53:03;3.65;;;1.80;;
15398;SDS011;7797;51.428;6.756;2022-08-01T15:55:31;4.57;;;1.70;;
15398;SDS011;7797;51.428;6.756;2022-08-01T15:57:59;2.90;;;1.77;;
15398;SDS011;7797;51.428;6.756;2022-08-01T16:00:37;3.08;;;1.75;;
15398;SDS011;7797;51.428;6.756;2022-08-01T16:03:07;3.40;;;2.15;;
15398;SDS011;7797;51.428;6.756;2022-08-01T16:05:36;2.60;;;2.15;;
15398;SDS011;7797;51.428;6.756;2022-08-01T16:08:12;3.25;;;1.98;;
15398;SDS011;7797;51.428;6.756;2022-08-01T16:10:42;2.22;;;1.60;;
15398;SDS011;7797;51.428;6.756;2022-08-01T16:13:12;1.98;;;1.88;;
15398;SDS011;7797;51.428;6.756;2022-08-01T16:15:39;2.47;;;1.98;;
15398;SDS011;7797;51.428;6.756;2022-08-01T16:18:06;1.80;;;1.70;;
15398;SDS011;7797;51.428;6.756;2022-08-01T16:20:34;1.95;;;1.80;;